Time;durP1;ratioP1;P1;durP2;ratioP2;P2;SDS_P1;SDS_P2;PMS_P1;PMS_P2;Temp;Humidity;BMP_temperature;BMP_pressure;BME280_temperature;BME280_humidity;BME280_pressure;Samples;Min_cycle;Max_cycle;Signal;HPM_P1;HPM_P2
2022/12/27 00:01:15;;;;;;;4.25;0.80;;;26.80;99.90;;;;;;5022949;28;20253;-87
2022/12/27 00:03:46;;;;;;;3.55;0.70;;;26.80;99.90;;;;;;5018357;28;20270;-88
2022/12/27 00:06:20;;;;;;;4.28;0.85;;;26.70;99.90;;;;;;5029401;28;20252;-89
2022/12/27 00:08:53;;;;;;;2.92;1.00;;;26.80;99.90;;;;;;5024008;28;20308;-87
2022/12/27 00:11:26;;;;;;;2.72;0.80;;;26.80;99.90;;;;;;5012012;28;20668;-85
2022/12/27 00:13:57;;;;;;;2.35;0.68;;;26.80;99.90;;;;;;5014023;28;20220;-86
2022/12/27 00:16:30;;;;;;;3.25;0.80;;;26.80;99.90;;;;;;5018846;28;20208;-89
2022/12/27 00:19:02;;;;;;;5.53;1.00;;;26.90;99.90;;;;;;5015642;28;20275;-88
2022/12/27 00:21:33;;;;;;;3.80;0.98;;;27.00;99.90;;;;;;5015108;28;20249;-87
2022/12/27 00:24:06;;;;;;;1.77;0.68;;;27.10;99.90;;;;;;5016840;28;20214;-86
2022/12/27 00:26:38;;;;;;;3.67;1.00;;;27.10;99.90;;;;;;5017251;28;20221;-85
2022/12/27 00:29:09;;;;;;;4.55;1.10;;;27.20;99.90;;;;;;5026570;28;20209;-87
2022/12/27 00:31:40;;;;;;;1.95;0.90;;;27.40;99.90;;;;;;5024787;28;20316;-86
2022/12/27 00:34:12;;;;;;;2.15;0.80;;;27.50;99.90;;;;;;5022132;28;20285;-86
2022/12/27 00:36:43;;;;;;;1.95;0.70;;;27.60;99.90;;;;;;5027573;28;20247;-86
2022/12/27 00:39:16;;;;;;;2.97;0.82;;;27.60;99.90;;;;;;5026159;28;20213;-87
2022/12/27 00:41:48;;;;;;;4.63;0.80;;;27.60;99.90;;;;;;5018937;28;20223;-87
2022/12/27 00:44:19;;;;;;;2.85;0.65;;;27.30;99.90;;;;;;5013791;28;20344;-85
2022/12/27 00:46:50;;;;;;;2.47;0.90;;;27.40;99.90;;;;;;5014596;28;20299;-85
2022/12/27 00:49:21;;;;;;;3.13;0.98;;;27.50;99.90;;;;;;5012577;28;20212;-85
2022/12/27 00:51:52;;;;;;;2.22;0.70;;;27.50;99.90;;;;;;5015340;28;20201;-87
2022/12/27 00:54:26;;;;;;;2.15;0.82;;;27.50;99.90;;;;;;5014606;28;20197;-85
2022/12/27 00:56:57;;;;;;;6.10;1.00;;;27.50;99.90;;;;;;5018293;28;20280;-87
2022/12/27 00:59:27;;;;;;;3.22;1.00;;;27.40;99.90;;;;;;5017208;28;20204;-87
2022/12/27 01:01:58;;;;;;;3.22;0.80;;;27.40;99.90;;;;;;5014651;28;20226;-88
2022/12/27 01:04:29;;;;;;;4.22;0.80;;;27.30;99.90;;;;;;5027110;28;20276;-87
2022/12/27 01:07:00;;;;;;;2.28;0.80;;;27.40;99.90;;;;;;5047366;28;20213;-89
2022/12/27 01:09:34;;;;;;;5.65;0.80;;;27.40;99.90;;;;;;5018213;28;20296;-88
2022/12/27 01:12:06;;;;;;;7.50;1.17;;;27.50;99.90;;;;;;5010828;28;20282;-87
2022/12/27 01:14:37;;;;;;;3.47;0.88;;;27.50;99.90;;;;;;5010842;28;20221;-86
2022/12/27 01:17:08;;;;;;;2.65;0.90;;;27.40;99.90;;;;;;5026553;28;20284;-87
2022/12/27 01:19:39;;;;;;;3.58;0.90;;;27.40;99.90;;;;;;5028449;28;20201;-87
2022/12/27 01:22:10;;;;;;;3.72;0.63;;;27.50;99.90;;;;;;5034728;28;20247;-86
2022/12/27 01:24:44;;;;;;;3.85;0.90;;;27.70;99.90;;;;;;5017188;28;20289;-87
2022/12/27 01:27:16;;;;;;;5.72;1.23;;;27.40;99.90;;;;;;5016398;28;20226;-86
2022/12/27 01:29:47;;;;;;;2.63;0.60;;;27.40;99.90;;;;;;5013978;28;20244;-87
2022/12/27 01:32:18;;;;;;;3.47;0.77;;;27.50;99.90;;;;;;5014794;28;20293;-87
2022/12/27 01:34:49;;;;;;;2.80;0.90;;;27.50;99.90;;;;;;5023669;28;20194;-86
2022/12/27 01:37:20;;;;;;;4.07;0.77;;;27.60;99.90;;;;;;5020594;28;20228;-83
2022/12/27 01:39:53;;;;;;;6.45;1.00;;;27.80;99.90;;;;;;5027785;28;20194;-85
2022/12/27 01:45:21;;;;;;;2.05;0.77;;;27.80;99.90;;;;;;5040630;28;20196;-83
2022/12/27 01:48:01;;;;;;;4.97;0.95;;;27.80;99.90;;;;;;5038298;28;20193;-85
2022/12/27 01:50:35;;;;;;;2.72;1.00;;;27.80;99.90;;;;;;5033633;28;20299;-86
2022/12/27 01:53:13;;;;;;;1.83;0.65;;;27.80;99.90;;;;;;5024133;28;20190;-85
2022/12/27 01:55:50;;;;;;;7.95;1.20;;;28.00;99.90;;;;;;5022971;28;20197;-82
2022/12/27 01:58:25;;;;;;;2.45;0.90;;;27.90;99.90;;;;;;5022382;28;20300;-82
2022/12/27 02:00:57;;;;;;;4.85;0.90;;;27.90;99.90;;;;;;5038942;28;20307;-83
2022/12/27 02:03:30;;;;;;;2.63;0.82;;;28.00;99.90;;;;;;5031247;28;20194;-82
2022/12/27 02:06:03;;;;;;;3.58;1.00;;;27.90;99.90;;;;;;5029574;28;20281;-83
2022/12/27 02:08:45;;;;;;;4.53;0.90;;;27.90;99.90;;;;;;5036393;28;20264;-82
2022/12/27 02:11:49;;;;;;;2.63;0.70;;;27.70;99.90;;;;;;5022652;28;20308;-85
2022/12/27 02:14:10;;;;;;;4.95;1.15;;;27.80;99.90;;;;;;5024804;28;20247;-83
2022/12/27 02:16:41;;;;;;;4.82;1.13;;;27.80;99.90;;;;;;5024106;28;20214;-82
2022/12/27 02:19:20;;;;;;;2.85;0.70;;;27.80;99.90;;;;;;5025012;28;20201;-81
2022/12/27 02:22:22;;;;;;;2.97;0.82;;;27.90;99.90;;;;;;5021124;28;20754;-84
2022/12/27 02:25:16;;;;;;;2.28;0.82;;;27.90;99.90;;;;;;5028924;28;20260;-86
2022/12/27 02:28:08;;;;;;;3.88;0.80;;;27.80;99.90;;;;;;5021715;28;20267;-84
2022/12/27 02:30:43;;;;;;;7.38;1.00;;;28.00;99.90;;;;;;5021198;28;20198;-83
2022/12/27 02:33:20;;;;;;;4.15;0.90;;;28.10;99.90;;;;;;5026831;28;20280;-86
2022/12/27 02:35:57;;;;;;;1.98;0.60;;;28.20;99.90;;;;;;5027064;28;20276;-83
2022/12/27 02:38:33;;;;;;;3.28;0.90;;;28.20;99.90;;;;;;5030986;28;20197;-82
2022/12/27 02:55:31;;;;;;;3.95;0.80;;;28.40;99.90;;;;;;5019268;28;20268;-83
2022/12/27 02:58:16;;;;;;;3.47;0.70;;;28.40;99.90;;;;;;5031202;28;20284;-85
2022/12/27 03:04:03;;;;;;;3.28;0.85;;;28.50;99.90;;;;;;5031443;28;20197;-84
2022/12/27 03:06:58;;;;;;;2.58;1.00;;;28.60;99.90;;;;;;5038754;28;20217;-86
2022/12/27 03:16:11;;;;;;;3.22;0.82;;;28.90;99.90;;;;;;4962807;28;20229;-85
2022/12/27 03:18:56;;;;;;;3.20;0.82;;;29.10;99.90;;;;;;5017413;28;20291;-85
2022/12/27 03:27:16;;;;;;;3.60;0.80;;;29.10;99.90;;;;;;5004211;28;20197;-84
2022/12/27 03:35:33;;;;;;;1.77;0.60;;;29.30;99.90;;;;;;5018889;28;20592;-84
2022/12/27 03:38:05;;;;;;;2.67;0.60;;;29.00;99.90;;;;;;5017757;28;20212;-82
2022/12/27 03:43:33;;;;;;;2.17;0.70;;;29.20;99.90;;;;;;5027902;28;20610;-84
2022/12/27 03:49:22;;;;;;;2.17;0.68;;;29.30;99.90;;;;;;5021849;28;20728;-84
2022/12/27 03:51:59;;;;;;;3.20;0.65;;;29.10;99.90;;;;;;5028081;28;20204;-83
2022/12/27 03:54:34;;;;;;;2.83;0.55;;;29.20;99.90;;;;;;5034158;28;20182;-85
2022/12/27 03:57:10;;;;;;;4.00;0.60;;;29.40;99.90;;;;;;5032544;28;20218;-84
2022/12/27 03:59:42;;;;;;;2.15;0.90;;;29.60;99.90;;;;;;5047852;28;20201;-84
2022/12/27 04:02:13;;;;;;;3.17;0.75;;;29.60;99.90;;;;;;5026386;28;20707;-84
2022/12/27 04:04:43;;;;;;;4.78;0.65;;;29.30;99.90;;;;;;5033183;28;20201;-84
2022/12/27 04:07:17;;;;;;;2.72;0.70;;;29.40;99.90;;;;;;5034988;28;20284;-87
2022/12/27 04:34:53;;;;;;;3.78;0.80;;;29.80;99.90;;;;;;5014169;28;20235;-83
2022/12/27 04:37:24;;;;;;;5.00;0.77;;;29.80;99.90;;;;;;5009824;28;20205;-83
2022/12/27 04:56:41;;;;;;;3.13;0.70;;;30.00;99.90;;;;;;5014684;28;20232;-83
2022/12/27 05:02:04;;;;;;;1.92;0.60;;;30.60;99.90;;;;;;5025268;28;20247;-83
2022/12/27 05:04:38;;;;;;;3.80;0.60;;;30.30;99.90;;;;;;5024700;28;22711;-82
2022/12/27 05:15:36;;;;;;;1.85;0.68;;;30.80;99.90;;;;;;5015397;28;20335;-86
2022/12/27 05:18:08;;;;;;;2.33;0.80;;;31.10;99.90;;;;;;5014951;28;20254;-84
2022/12/27 05:20:38;;;;;;;3.97;0.90;;;30.80;99.90;;;;;;5015812;28;20223;-84
2022/12/27 05:25:57;;;;;;;2.35;0.85;;;30.70;99.90;;;;;;5010789;28;20297;-83
2022/12/27 05:28:30;;;;;;;2.13;0.70;;;30.60;99.90;;;;;;5009074;28;20208;-81
2022/12/27 05:31:04;;;;;;;2.25;0.80;;;30.50;99.90;;;;;;5007450;28;20201;-82
2022/12/27 05:33:35;;;;;;;2.75;0.80;;;30.50;99.90;;;;;;5006405;28;20221;-83
2022/12/27 05:36:06;;;;;;;1.42;0.52;;;30.40;99.90;;;;;;5009617;28;20228;-83
2022/12/27 05:38:37;;;;;;;2.00;0.88;;;30.20;99.90;;;;;;5007725;28;20320;-83
2022/12/27 05:41:08;;;;;;;3.33;0.93;;;30.30;99.90;;;;;;5007095;28;20323;-82
2022/12/27 05:43:41;;;;;;;4.13;1.00;;;30.50;99.90;;;;;;5009232;28;20236;-83
2022/12/27 05:46:14;;;;;;;3.20;0.80;;;30.50;99.90;;;;;;5013330;28;20232;-83
2022/12/27 05:48:45;;;;;;;1.67;0.65;;;30.70;99.90;;;;;;5008242;28;20209;-84
2022/12/27 05:51:18;;;;;;;1.70;0.85;;;30.80;99.90;;;;;;5008746;28;20221;-84
2022/12/27 05:53:50;;;;;;;4.38;1.02;;;30.80;99.90;;;;;;5009065;28;20225;-83
2022/12/27 05:56:21;;;;;;;2.75;0.80;;;30.70;99.90;;;;;;5011061;28;20201;-83
2022/12/27 05:58:57;;;;;;;3.05;0.70;;;30.80;99.90;;;;;;5008810;28;20198;-83
2022/12/27 06:01:28;;;;;;;3.83;1.00;;;31.10;99.90;;;;;;5007896;28;20205;-83
2022/12/27 06:04:02;;;;;;;2.38;0.60;;;30.90;99.90;;;;;;5011803;28;20208;-83
2022/12/27 06:06:33;;;;;;;3.78;0.55;;;31.00;99.90;;;;;;5020600;28;20204;-85
2022/12/27 06:09:03;;;;;;;3.65;0.68;;;31.10;99.90;;;;;;5031048;28;20219;-83
2022/12/27 06:11:35;;;;;;;4.07;0.60;;;31.30;99.90;;;;;;5030827;28;20197;-85
2022/12/27 06:14:08;;;;;;;1.95;0.55;;;31.30;99.90;;;;;;5036933;28;20245;-82
2022/12/27 06:16:39;;;;;;;2.00;0.70;;;31.00;99.90;;;;;;5019456;28;20205;-82
2022/12/27 06:19:10;;;;;;;2.22;0.63;;;30.80;99.90;;;;;;5004750;28;20775;-81
2022/12/27 06:21:41;;;;;;;1.90;0.88;;;30.60;99.90;;;;;;5006738;28;20233;-83
2022/12/27 06:24:11;;;;;;;2.80;0.80;;;30.60;99.90;;;;;;5005671;28;22221;-82
2022/12/27 06:26:46;;;;;;;1.05;0.65;;;30.70;99.90;;;;;;5009389;28;20195;-82
2022/12/27 06:29:18;;;;;;;1.92;0.70;;;30.80;99.90;;;;;;5005390;28;20197;-83
2022/12/27 06:31:49;;;;;;;3.08;0.70;;;30.80;99.90;;;;;;5005100;28;20937;-83
2022/12/27 06:34:21;;;;;;;1.38;0.60;;;31.00;99.90;;;;;;5005207;28;20279;-83
2022/12/27 06:36:52;;;;;;;2.97;0.82;;;31.00;99.90;;;;;;5005136;28;20193;-84
2022/12/27 06:39:23;;;;;;;1.85;0.50;;;30.80;99.90;;;;;;5006289;28;20202;-84
2022/12/27 06:41:55;;;;;;;3.58;0.65;;;31.10;99.90;;;;;;5006247;28;20200;-84
2022/12/27 06:44:29;;;;;;;1.15;0.60;;;31.60;99.90;;;;;;5006288;28;20254;-84
2022/12/27 06:47:01;;;;;;;1.73;0.60;;;31.70;99.90;;;;;;5008592;28;20254;-85
2022/12/27 06:49:32;;;;;;;1.63;0.70;;;32.00;99.90;;;;;;5003352;28;20212;-86
2022/12/27 06:52:02;;;;;;;1.42;0.70;;;32.00;99.90;;;;;;5005976;28;20198;-84
2022/12/27 06:54:33;;;;;;;3.00;0.65;;;32.20;99.90;;;;;;5004319;28;20207;-83
2022/12/27 06:57:04;;;;;;;1.90;0.68;;;32.40;99.90;;;;;;5004754;28;20551;-82
2022/12/27 06:59:37;;;;;;;1.58;0.60;;;32.40;99.90;;;;;;5004047;28;20677;-82
2022/12/27 07:02:09;;;;;;;2.28;0.50;;;32.30;99.90;;;;;;5004896;28;21226;-84
2022/12/27 07:04:41;;;;;;;2.03;0.70;;;32.40;99.90;;;;;;5007279;28;20687;-83
2022/12/27 07:07:11;;;;;;;3.38;0.80;;;33.00;99.90;;;;;;5008955;28;20197;-81
2022/12/27 07:09:43;;;;;;;2.88;0.70;;;33.30;99.90;;;;;;5014216;28;20320;-83
2022/12/27 07:12:13;;;;;;;1.83;0.60;;;33.30;99.90;;;;;;5012956;28;20205;-82
2022/12/27 07:14:49;;;;;;;2.65;0.65;;;33.40;99.90;;;;;;5009990;28;20225;-82
2022/12/27 07:17:20;;;;;;;2.72;0.50;;;33.40;99.90;;;;;;5015471;28;20196;-84
2022/12/27 07:19:54;;;;;;;1.75;0.63;;;33.70;99.90;;;;;;5014638;28;20197;-84
2022/12/27 07:22:25;;;;;;;3.20;0.80;;;33.60;99.90;;;;;;5012179;28;20251;-83
2022/12/27 07:24:55;;;;;;;2.38;0.75;;;33.70;99.90;;;;;;5014831;28;20244;-83
2022/12/27 07:27:28;;;;;;;2.60;0.75;;;33.70;99.90;;;;;;5012282;28;20202;-82
2022/12/27 07:30:00;;;;;;;3.45;0.90;;;33.70;99.90;;;;;;5010038;28;20198;-83
2022/12/27 07:32:33;;;;;;;2.05;0.65;;;33.30;99.90;;;;;;5010651;28;20967;-83
2022/12/27 07:35:04;;;;;;;2.05;0.75;;;33.00;99.90;;;;;;5033314;28;20284;-84
2022/12/27 07:37:35;;;;;;;3.85;0.80;;;33.30;99.90;;;;;;5034564;28;20237;-84
2022/12/27 07:40:06;;;;;;;4.57;0.80;;;33.40;99.90;;;;;;5045425;28;20208;-83
2022/12/27 07:42:38;;;;;;;1.15;0.68;;;33.00;99.90;;;;;;5034596;28;20249;-84
2022/12/27 07:45:12;;;;;;;3.35;0.82;;;33.20;99.90;;;;;;5034301;28;20196;-84
2022/12/27 07:47:46;;;;;;;2.67;0.80;;;33.20;99.90;;;;;;5035859;28;20187;-86
2022/12/27 07:50:17;;;;;;;4.38;0.80;;;33.10;99.90;;;;;;5034972;28;20695;-85
2022/12/27 07:52:48;;;;;;;2.63;0.80;;;32.90;99.90;;;;;;5034435;28;20236;-85
2022/12/27 07:55:18;;;;;;;2.63;0.85;;;32.90;99.90;;;;;;5033641;28;20199;-83
2022/12/27 07:57:49;;;;;;;3.67;0.82;;;32.30;99.90;;;;;;5035201;28;20246;-84
2022/12/27 08:00:22;;;;;;;2.10;0.60;;;32.30;99.90;;;;;;5033986;28;20201;-85
2022/12/27 08:02:55;;;;;;;2.97;0.80;;;32.00;99.90;;;;;;5034507;28;20229;-84
2022/12/27 08:05:26;;;;;;;3.40;0.73;;;32.00;99.90;;;;;;5033956;28;20197;-84
2022/12/27 08:08:00;;;;;;;2.92;0.63;;;31.50;99.90;;;;;;5038979;28;20194;-84
2022/12/27 08:10:32;;;;;;;3.08;1.00;;;31.00;99.90;;;;;;5035400;28;20185;-84
2022/12/27 08:13:03;;;;;;;1.98;0.70;;;30.40;99.90;;;;;;5036559;28;20201;-84
2022/12/27 08:15:37;;;;;;;3.33;0.85;;;29.90;99.90;;;;;;5032504;28;20205;-84
2022/12/27 08:18:08;;;;;;;2.70;0.70;;;29.50;99.90;;;;;;5043135;28;20261;-86
2022/12/27 08:20:40;;;;;;;2.85;1.10;;;29.00;99.90;;;;;;5046861;28;20296;-84
2022/12/27 08:23:12;;;;;;;1.75;0.75;;;28.70;99.90;;;;;;5049226;28;20291;-85
2022/12/27 08:25:44;;;;;;;2.63;0.80;;;28.30;99.90;;;;;;5050268;28;20189;-85
2022/12/27 08:28:17;;;;;;;2.22;0.90;;;28.00;99.90;;;;;;5051474;28;20201;-85
2022/12/27 08:30:49;;;;;;;1.95;0.90;;;27.70;99.90;;;;;;5042968;28;20221;-86
2022/12/27 08:33:20;;;;;;;3.55;1.10;;;27.50;99.90;;;;;;5025431;28;20299;-86
2022/12/27 08:35:51;;;;;;;2.10;1.00;;;27.40;99.90;;;;;;5031332;28;20280;-86
2022/12/27 08:38:22;;;;;;;3.75;0.90;;;27.20;99.90;;;;;;5035518;28;20209;-84
2022/12/27 08:40:53;;;;;;;3.10;1.00;;;27.10;99.90;;;;;;5024242;28;20281;-85
2022/12/27 08:43:24;;;;;;;3.28;0.90;;;26.80;99.90;;;;;;5016842;28;20214;-85
2022/12/27 08:46:01;;;;;;;1.90;0.85;;;26.80;99.90;;;;;;5022772;28;20198;-88
2022/12/27 08:48:32;;;;;;;2.45;0.90;;;26.60;99.90;;;;;;5043510;28;20225;-85
2022/12/27 08:51:07;;;;;;;2.63;1.00;;;26.60;99.90;;;;;;5036135;28;20197;-85
2022/12/27 08:53:38;;;;;;;2.60;0.90;;;26.50;99.90;;;;;;5033404;28;20575;-86
2022/12/27 08:56:09;;;;;;;3.22;0.80;;;26.40;99.90;;;;;;5034308;28;20264;-87
2022/12/27 08:58:39;;;;;;;1.92;0.73;;;26.40;99.90;;;;;;5014662;28;20196;-86
2022/12/27 09:01:13;;;;;;;2.35;0.85;;;26.30;99.90;;;;;;5023453;28;20197;-83
2022/12/27 09:03:44;;;;;;;2.58;0.80;;;26.20;99.90;;;;;;5025562;28;20336;-83
2022/12/27 09:06:16;;;;;;;3.47;1.02;;;26.20;99.90;;;;;;5032200;28;20193;-84
2022/12/27 09:08:49;;;;;;;3.13;0.70;;;26.00;99.90;;;;;;5025110;28;20273;-83
2022/12/27 09:11:21;;;;;;;3.78;0.93;;;25.90;99.90;;;;;;5012801;28;20219;-83
2022/12/27 09:13:52;;;;;;;2.25;0.88;;;25.70;99.90;;;;;;5012553;28;20236;-83
2022/12/27 09:16:27;;;;;;;4.65;1.02;;;25.70;99.90;;;;;;5012720;28;20208;-82
2022/12/27 09:18:59;;;;;;;3.20;0.88;;;25.60;99.90;;;;;;5030557;28;20196;-81
2022/12/27 09:21:32;;;;;;;3.08;0.77;;;25.60;99.90;;;;;;5041729;28;20261;-84
2022/12/27 09:24:04;;;;;;;2.45;0.90;;;25.60;99.90;;;;;;5027100;28;20248;-85
2022/12/27 09:26:35;;;;;;;3.67;0.93;;;25.50;99.90;;;;;;5012659;28;20277;-85
2022/12/27 09:29:06;;;;;;;5.57;1.10;;;25.50;99.90;;;;;;5024107;28;20755;-83
2022/12/27 09:31:38;;;;;;;3.17;0.90;;;25.50;99.90;;;;;;5028849;28;20351;-83
2022/12/27 09:34:11;;;;;;;3.08;0.73;;;25.40;99.90;;;;;;5035643;28;20229;-83
2022/12/27 09:36:43;;;;;;;3.78;0.88;;;25.40;99.90;;;;;;5032276;28;20667;-83
2022/12/27 09:39:15;;;;;;;2.35;0.80;;;25.30;99.90;;;;;;5032163;28;20562;-84
2022/12/27 09:41:56;;;;;;;1.02;0.73;;;25.30;99.90;;;;;;5032318;28;20207;-83
2022/12/27 09:44:35;;;;;;;2.38;0.80;;;25.30;99.90;;;;;;5020304;28;20243;-84
2022/12/27 09:47:13;;;;;;;3.03;0.93;;;25.30;99.90;;;;;;5021708;28;20220;-85
2022/12/27 09:49:47;;;;;;;2.85;0.80;;;25.20;99.90;;;;;;5015056;28;20722;-84
2022/12/27 09:52:20;;;;;;;1.77;0.73;;;25.00;99.90;;;;;;5019107;28;20218;-84
2022/12/27 09:55:00;;;;;;;4.80;1.00;;;25.00;99.90;;;;;;5031742;28;20284;-84
2022/12/27 09:57:37;;;;;;;3.60;0.80;;;25.00;99.90;;;;;;5031205;28;20203;-83
2022/12/27 10:00:16;;;;;;;2.10;0.70;;;25.10;99.90;;;;;;5014158;28;20300;-84
2022/12/27 10:02:52;;;;;;;3.85;1.00;;;25.10;99.90;;;;;;5022703;28;20201;-84
2022/12/27 10:05:24;;;;;;;2.30;0.85;;;25.00;99.90;;;;;;5029781;28;20327;-84
2022/12/27 10:08:15;;;;;;;4.80;1.10;;;25.10;99.90;;;;;;5019333;28;20230;-84
2022/12/27 10:10:51;;;;;;;2.17;0.73;;;25.10;99.90;;;;;;5014881;28;20288;-84
2022/12/27 10:13:40;;;;;;;4.88;1.20;;;25.00;99.90;;;;;;5044398;28;20242;-84
2022/12/27 10:16:22;;;;;;;4.53;1.02;;;25.00;99.90;;;;;;5024176;28;20692;-86
2022/12/27 10:19:17;;;;;;;4.20;1.20;;;25.00;99.90;;;;;;5026992;28;20204;-83
2022/12/27 10:22:00;;;;;;;2.28;0.90;;;24.90;99.90;;;;;;5031874;28;20229;-84
2022/12/27 10:24:37;;;;;;;3.28;0.90;;;24.90;99.90;;;;;;5044803;28;20220;-85
2022/12/27 10:27:15;;;;;;;3.53;0.82;;;24.90;99.90;;;;;;5031763;28;20284;-85
2022/12/27 10:29:46;;;;;;;2.92;0.90;;;24.80;99.90;;;;;;5035148;28;20204;-83
2022/12/27 10:32:19;;;;;;;4.22;0.90;;;24.80;99.90;;;;;;5018182;28;20271;-83
2022/12/27 10:34:58;;;;;;;2.42;0.80;;;24.80;99.90;;;;;;5011851;28;20237;-85
2022/12/27 10:37:31;;;;;;;2.42;0.75;;;24.80;99.90;;;;;;5012570;28;20238;-85
2022/12/27 10:40:12;;;;;;;3.83;0.77;;;24.80;99.90;;;;;;5032028;28;20217;-85
2022/12/27 10:42:48;;;;;;;3.92;1.00;;;24.80;99.90;;;;;;5036743;28;20735;-84
2022/12/27 10:45:38;;;;;;;1.80;0.85;;;24.70;99.90;;;;;;5033714;28;20276;-84
2022/12/27 10:48:22;;;;;;;1.80;0.80;;;24.80;99.90;;;;;;5034092;28;20198;-85
2022/12/27 10:50:59;;;;;;;2.13;0.93;;;24.70;99.90;;;;;;5029730;28;20712;-84
2022/12/27 10:53:36;;;;;;;1.75;1.00;;;24.60;99.90;;;;;;5029062;28;20561;-86
2022/12/27 10:56:18;;;;;;;3.05;0.93;;;24.60;99.90;;;;;;5028900;28;20227;-85
2022/12/27 10:58:50;;;;;;;4.30;0.90;;;24.60;99.90;;;;;;5026650;28;20196;-84
2022/12/27 11:01:25;;;;;;;1.60;0.68;;;24.60;99.90;;;;;;5044993;28;20193;-84
2022/12/27 11:04:12;;;;;;;3.10;0.80;;;24.60;99.90;;;;;;5042419;28;20260;-84
2022/12/27 11:06:47;;;;;;;2.13;0.73;;;24.50;99.90;;;;;;5033968;28;20239;-82
2022/12/27 11:09:29;;;;;;;4.05;1.00;;;24.50;99.90;;;;;;5040064;28;20307;-86
2022/12/27 11:12:20;;;;;;;3.10;0.95;;;24.50;99.90;;;;;;5025636;28;20257;-86
2022/12/27 11:15:02;;;;;;;4.47;0.82;;;24.60;99.90;;;;;;5022917;28;20224;-84
2022/12/27 11:17:38;;;;;;;2.30;0.82;;;24.60;99.90;;;;;;5034232;28;20288;-85
2022/12/27 11:20:23;;;;;;;1.75;0.80;;;24.60;99.90;;;;;;5040926;28;20211;-84
2022/12/27 11:23:00;;;;;;;2.65;0.80;;;24.50;99.90;;;;;;5032504;28;20304;-84
2022/12/27 11:25:32;;;;;;;2.17;0.95;;;24.50;99.90;;;;;;5036353;28;20774;-83
2022/12/27 11:28:05;;;;;;;3.13;0.82;;;24.60;99.90;;;;;;5042979;28;20252;-85
2022/12/27 11:30:39;;;;;;;3.88;0.90;;;24.50;99.90;;;;;;5035628;28;20223;-85
2022/12/27 11:33:19;;;;;;;2.55;0.80;;;24.40;99.90;;;;;;5032150;28;20201;-84
2022/12/27 11:35:51;;;;;;;3.40;1.00;;;24.40;99.90;;;;;;5034727;28;20292;-85
2022/12/27 11:38:27;;;;;;;3.83;0.90;;;24.50;99.90;;;;;;5035831;28;20205;-84
2022/12/27 11:41:02;;;;;;;2.00;0.82;;;24.40;99.90;;;;;;5029838;28;20287;-84
2022/12/27 11:43:37;;;;;;;2.38;0.77;;;24.40;99.90;;;;;;5023728;28;20212;-85
2022/12/27 11:46:15;;;;;;;4.30;1.05;;;24.40;99.90;;;;;;5035514;28;20685;-86
2022/12/27 11:48:51;;;;;;;4.10;0.80;;;24.40;99.90;;;;;;5042961;28;20219;-86
2022/12/27 11:51:47;;;;;;;3.15;0.90;;;24.50;99.90;;;;;;5038598;28;20735;-85
2022/12/27 11:54:42;;;;;;;4.22;1.00;;;24.50;99.90;;;;;;5022334;28;20215;-85
2022/12/27 11:57:24;;;;;;;2.38;0.85;;;24.50;99.90;;;;;;5029869;28;20205;-85
2022/12/27 12:00:08;;;;;;;2.92;0.70;;;24.50;99.90;;;;;;5030612;28;20276;-85
2022/12/27 12:03:00;;;;;;;3.42;0.80;;;24.50;99.90;;;;;;5033685;28;20280;-84
2022/12/27 12:05:57;;;;;;;3.83;0.88;;;24.50;99.90;;;;;;5038925;28;20296;-84
2022/12/27 12:08:52;;;;;;;3.45;1.10;;;24.50;99.90;;;;;;5038568;28;20197;-83
2022/12/27 12:11:37;;;;;;;5.40;1.27;;;24.50;99.90;;;;;;5043821;28;20197;-85
2022/12/27 12:14:47;;;;;;;2.65;0.98;;;24.50;99.90;;;;;;5031283;28;20225;-83
2022/12/27 12:17:33;;;;;;;4.60;1.08;;;24.50;99.90;;;;;;5054129;28;20707;-85
2022/12/27 12:20:35;;;;;;;3.42;1.00;;;24.50;99.90;;;;;;5036828;28;20196;-85
2022/12/27 12:23:12;;;;;;;5.55;1.17;;;24.60;99.90;;;;;;5022813;28;20225;-85
2022/12/27 12:26:12;;;;;;;4.20;1.17;;;24.60;99.90;;;;;;5035933;28;20218;-83
2022/12/27 12:29:24;;;;;;;5.13;1.35;;;24.60;99.90;;;;;;5031033;28;20212;-84
2022/12/27 12:32:33;;;;;;;2.28;1.10;;;24.60;99.90;;;;;;5026744;28;20237;-84
2022/12/27 12:35:25;;;;;;;3.25;1.27;;;24.50;99.90;;;;;;5023597;28;20212;-84
2022/12/27 12:38:08;;;;;;;3.08;1.17;;;24.40;99.90;;;;;;5034338;28;20672;-83
2022/12/27 12:41:18;;;;;;;3.67;1.27;;;24.30;99.90;;;;;;5024892;28;20208;-84
2022/12/27 12:44:25;;;;;;;3.17;1.20;;;24.30;99.90;;;;;;4992590;28;20582;-83
2022/12/27 12:47:03;;;;;;;4.05;1.50;;;24.20;99.90;;;;;;5050662;28;20283;-84
2022/12/27 12:49:59;;;;;;;5.72;1.65;;;24.30;99.90;;;;;;5029373;28;20643;-91
2022/12/27 12:52:47;;;;;;;5.28;1.75;;;24.20;99.90;;;;;;5019905;28;20730;-85
2022/12/27 12:55:49;;;;;;;4.82;1.40;;;24.10;99.90;;;;;;5026725;28;20219;-84
2022/12/27 12:58:36;;;;;;;3.65;1.40;;;24.10;99.90;;;;;;5034905;28;20280;-84
2022/12/27 13:01:23;;;;;;;3.63;1.40;;;23.90;99.90;;;;;;5038420;28;20237;-84
2022/12/27 13:04:11;;;;;;;3.55;1.38;;;23.90;99.90;;;;;;5040066;28;20300;-84
2022/12/27 13:07:30;;;;;;;4.30;1.45;;;24.00;99.90;;;;;;5035624;28;20197;-84
2022/12/27 13:10:34;;;;;;;5.18;1.50;;;24.00;99.90;;;;;;5035330;28;20239;-85
2022/12/27 13:13:14;;;;;;;6.50;1.48;;;24.00;99.90;;;;;;5019452;28;20252;-85
2022/12/27 13:15:59;;;;;;;3.15;1.33;;;24.00;99.90;;;;;;5028583;28;20289;-85
2022/12/27 13:18:40;;;;;;;4.30;1.38;;;24.00;99.90;;;;;;5032135;28;20276;-84
2022/12/27 13:21:25;;;;;;;5.93;1.52;;;24.00;99.90;;;;;;5033261;28;20205;-84
2022/12/27 13:24:08;;;;;;;3.42;1.35;;;24.10;99.90;;;;;;5032440;28;20208;-84
2022/12/27 13:26:48;;;;;;;6.75;1.48;;;24.00;99.90;;;;;;5032868;28;20610;-84
2022/12/27 13:29:52;;;;;;;4.20;1.40;;;24.00;99.90;;;;;;5037540;28;20556;-85
2022/12/27 13:32:37;;;;;;;3.80;1.52;;;24.00;99.90;;;;;;5045296;28;20281;-83
2022/12/27 13:35:30;;;;;;;4.45;1.50;;;24.00;99.90;;;;;;5035440;28;20237;-84
2022/12/27 13:38:14;;;;;;;7.82;1.63;;;23.90;99.90;;;;;;5021105;28;20197;-85
2022/12/27 13:41:12;;;;;;;7.45;1.52;;;23.90;99.90;;;;;;5033223;28;20207;-85
2022/12/27 13:44:03;;;;;;;6.68;1.65;;;23.90;99.90;;;;;;5032300;28;20192;-85
2022/12/27 13:46:54;;;;;;;6.25;1.70;;;23.80;99.90;;;;;;5030728;28;20232;-85
2022/12/27 13:49:41;;;;;;;6.90;1.55;;;23.80;99.90;;;;;;5033828;28;20572;-84
2022/12/27 13:52:35;;;;;;;5.97;1.52;;;23.90;99.90;;;;;;5031927;28;20710;-85
2022/12/27 13:55:37;;;;;;;4.68;1.40;;;23.90;99.90;;;;;;5012525;28;20209;-88
2022/12/27 13:58:40;;;;;;;5.32;1.30;;;23.90;99.90;;;;;;5014417;28;20200;-85
2022/12/27 14:01:37;;;;;;;3.42;1.35;;;23.80;99.90;;;;;;5013566;28;20304;-86
2022/12/27 14:04:37;;;;;;;3.30;1.10;;;23.70;99.90;;;;;;5030067;28;20587;-85
2022/12/27 14:07:41;;;;;;;4.78;1.52;;;23.70;99.90;;;;;;5032044;28;20530;-86
2022/12/27 14:10:30;;;;;;;4.00;1.45;;;23.80;99.90;;;;;;5039681;28;20626;-87
2022/12/27 14:13:03;;;;;;;4.00;1.40;;;23.80;99.90;;;;;;5029548;28;20266;-86
2022/12/27 14:15:56;;;;;;;4.13;1.58;;;23.70;99.90;;;;;;5018681;28;20255;-85
2022/12/27 14:18:51;;;;;;;7.15;1.70;;;23.70;99.90;;;;;;5016373;28;20208;-88
2022/12/27 14:21:50;;;;;;;5.10;1.45;;;23.70;99.90;;;;;;5013179;28;20202;-87
2022/12/27 14:24:44;;;;;;;5.13;1.75;;;23.80;99.90;;;;;;5029940;28;20258;-88
2022/12/27 14:27:48;;;;;;;5.97;1.70;;;23.80;99.90;;;;;;5043625;28;20274;-87
2022/12/27 14:30:42;;;;;;;4.03;1.38;;;23.70;99.90;;;;;;5037270;28;20216;-87
2022/12/27 14:33:46;;;;;;;6.78;1.80;;;23.70;99.90;;;;;;5033013;28;20280;-87
2022/12/27 14:36:53;;;;;;;5.97;1.63;;;23.70;99.90;;;;;;5028651;28;20197;-85
2022/12/27 14:40:01;;;;;;;4.13;1.45;;;23.70;99.90;;;;;;5030257;28;20239;-86
2022/12/27 14:43:09;;;;;;;4.70;1.60;;;23.80;99.90;;;;;;5031872;28;20616;-87
2022/12/27 14:46:17;;;;;;;5.22;1.73;;;23.70;99.90;;;;;;5031320;28;20209;-85
2022/12/27 14:49:17;;;;;;;3.90;1.65;;;23.70;99.90;;;;;;5019009;28;20255;-86
2022/12/27 14:52:37;;;;;;;5.55;1.70;;;23.80;99.90;;;;;;5021324;28;20272;-86
2022/12/27 14:55:37;;;;;;;4.85;1.25;;;23.70;99.90;;;;;;5019347;28;20207;-86
2022/12/27 14:58:29;;;;;;;4.45;1.40;;;23.70;99.90;;;;;;5013952;28;20194;-87
2022/12/27 15:01:11;;;;;;;3.47;1.30;;;23.70;99.90;;;;;;5026652;28;20288;-84
2022/12/27 15:04:00;;;;;;;3.28;1.30;;;23.70;99.90;;;;;;5024251;28;20197;-84
2022/12/27 15:06:58;;;;;;;5.40;1.67;;;23.70;99.90;;;;;;5016845;28;20232;-84
2022/12/27 15:09:41;;;;;;;4.53;1.40;;;23.70;99.90;;;;;;5023478;28;20201;-85
2022/12/27 15:12:25;;;;;;;5.15;1.50;;;23.70;99.90;;;;;;5020854;28;20191;-86
2022/12/27 15:15:25;;;;;;;5.28;1.63;;;23.60;99.90;;;;;;5011904;28;20190;-86
2022/12/27 15:18:11;;;;;;;3.42;1.38;;;23.60;99.90;;;;;;5019384;28;20284;-86
2022/12/27 15:21:06;;;;;;;5.63;1.30;;;23.60;99.90;;;;;;5024122;28;20231;-86
2022/12/27 15:23:45;;;;;;;4.70;1.58;;;23.60;99.90;;;;;;5021759;28;20233;-85
2022/12/27 15:26:23;;;;;;;6.35;1.95;;;23.60;99.90;;;;;;5021868;28;20946;-85
2022/12/27 15:29:21;;;;;;;6.65;1.90;;;23.60;99.90;;;;;;5023274;28;20281;-86